Terminal Aerodrome Forecast
Issued by NWS Cleveland, OH

Home | Current Version | Previous Version | Graphics & Text | Print | Product List | Glossary Off
Versions: 1 2 3 4 5 6 7 8 9 10 11 12 13 14 15

743
FTUS41 KCLE 250534
TAFMFD
TAF
KMFD 250534Z 2506/2606 20010KT P6SM SCT060 OVC150
     FM251200 18005KT 6SM HZ OVC060
     FM251800 33008KT P6SM OVC045
     FM252200 06010KT 6SM HZ OVC025
     FM260200 08008KT 5SM BR OVC015=

USA.gov is the U.S. government's official web portal to all federal, state and local government web resources and services.